Time;durP1;ratioP1;P1;durP2;ratioP2;P2;SDS_P1;SDS_P2;PMS_P1;PMS_P2;Temp;Humidity;BMP_temperature;BMP_pressure;BME280_temperature;BME280_humidity;BME280_pressure;Samples;Min_cycle;Max_cycle;Signal;HPM_P1;HPM_P2
2022/09/30 00:01:33;;;;;;;1.75;0.20;;;17.80;96.70;;;;;;5081912;28;20044;-81
2022/09/30 00:04:03;;;;;;;2.13;0.15;;;17.80;96.70;;;;;;5077186;28;20479;-81
2022/09/30 00:06:34;;;;;;;1.40;0.20;;;17.80;96.70;;;;;;5079071;28;20137;-80
2022/09/30 00:09:02;;;;;;;0.93;0.20;;;17.80;96.70;;;;;;5082801;28;20829;-80
2022/09/30 00:11:32;;;;;;;1.60;0.10;;;17.70;96.70;;;;;;5085570;28;20094;-81
2022/09/30 00:14:01;;;;;;;0.47;0.10;;;17.80;96.70;;;;;;5085739;28;20064;-81
2022/09/30 00:16:32;;;;;;;0.90;0.10;;;17.80;96.70;;;;;;5082668;28;20040;-80
2022/09/30 00:19:03;;;;;;;0.80;0.10;;;17.90;96.70;;;;;;5080463;28;20116;-80
2022/09/30 00:21:33;;;;;;;0.52;0.17;;;17.80;96.70;;;;;;5085074;28;20032;-80
2022/09/30 00:24:01;;;;;;;1.27;0.20;;;17.70;96.70;;;;;;5082865;28;20056;-80
2022/09/30 00:26:30;;;;;;;0.68;0.10;;;17.80;96.70;;;;;;5084347;28;20064;-80
2022/09/30 00:28:59;;;;;;;4.63;0.25;;;17.70;96.70;;;;;;5083564;28;20048;-79
2022/09/30 00:31:29;;;;;;;0.38;0.10;;;17.80;96.70;;;;;;5084648;28;20516;-80
2022/09/30 00:34:06;;;;;;;0.73;0.13;;;17.70;96.70;;;;;;5082968;28;20052;-81
2022/09/30 00:36:42;;;;;;;1.10;0.15;;;17.70;96.70;;;;;;5085117;28;20040;-81
2022/09/30 00:39:13;;;;;;;0.60;0.20;;;17.60;96.70;;;;;;5064920;28;20048;-81
2022/09/30 00:41:42;;;;;;;2.38;0.17;;;17.40;96.70;;;;;;5083055;28;20571;-80
2022/09/30 00:44:46;;;;;;;1.55;0.15;;;17.50;96.70;;;;;;5083499;28;20043;-81
2022/09/30 00:47:32;;;;;;;0.90;0.20;;;17.50;96.70;;;;;;5083929;28;20139;-80
2022/09/30 00:50:09;;;;;;;2.08;0.55;;;17.50;96.70;;;;;;5083215;28;20058;-80
2022/09/30 00:52:39;;;;;;;1.23;0.30;;;17.40;96.70;;;;;;5067251;28;20166;-80
2022/09/30 00:55:18;;;;;;;0.35;0.10;;;17.40;96.70;;;;;;5084945;28;20498;-80
2022/09/30 00:57:47;;;;;;;1.17;0.10;;;17.40;96.70;;;;;;5079562;28;20125;-81
2022/09/30 01:00:15;;;;;;;0.47;0.10;;;17.40;96.70;;;;;;5084915;28;20036;-81
2022/09/30 01:02:45;;;;;;;0.55;0.10;;;17.50;96.70;;;;;;5085105;28;20044;-80
2022/09/30 01:05:14;;;;;;;1.20;0.22;;;17.40;96.70;;;;;;5086004;28;20461;-81
2022/09/30 01:07:44;;;;;;;0.70;0.20;;;17.40;96.70;;;;;;5077481;28;20040;-80
2022/09/30 01:10:12;;;;;;;2.22;0.22;;;17.40;96.70;;;;;;5084691;28;20478;-80
2022/09/30 01:12:40;;;;;;;2.42;0.20;;;17.50;96.70;;;;;;5084491;28;20036;-81
2022/09/30 01:15:09;;;;;;;0.35;0.10;;;17.50;96.70;;;;;;5083139;28;20430;-80
2022/09/30 01:17:48;;;;;;;1.98;0.15;;;17.60;96.70;;;;;;5083754;28;20058;-82
2022/09/30 01:20:40;;;;;;;2.97;0.40;;;17.50;96.70;;;;;;5081930;28;21087;-80
2022/09/30 01:23:31;;;;;;;0.93;0.15;;;17.30;96.70;;;;;;5083197;28;20145;-81
2022/09/30 01:26:28;;;;;;;3.10;0.40;;;17.40;96.70;;;;;;5085404;28;20536;-80
2022/09/30 01:29:27;;;;;;;0.73;0.17;;;17.40;96.70;;;;;;5083117;28;20048;-80
2022/09/30 01:32:10;;;;;;;1.10;0.68;;;17.40;96.70;;;;;;5084323;28;20047;-80
2022/09/30 01:34:51;;;;;;;1.48;0.20;;;17.40;96.70;;;;;;5083390;28;20139;-80
2022/09/30 01:37:28;;;;;;;0.82;0.20;;;17.40;96.70;;;;;;5079705;28;20097;-80
2022/09/30 01:40:00;;;;;;;;;;;17.40;96.70;;;;;;5063696;28;20135;-80
2022/09/30 01:42:36;;;;;;;2.85;0.20;;;17.40;96.70;;;;;;5085115;28;20578;-80
2022/09/30 01:45:09;;;;;;;0.68;0.20;;;17.40;96.70;;;;;;5083892;28;20493;-80
2022/09/30 01:47:46;;;;;;;1.08;0.10;;;17.40;96.70;;;;;;5083925;28;20060;-80
2022/09/30 01:50:19;;;;;;;2.10;0.20;;;17.40;96.70;;;;;;5082231;28;20450;-81
2022/09/30 01:52:54;;;;;;;1.08;0.20;;;17.40;96.70;;;;;;5081303;28;20049;-80
2022/09/30 01:55:28;;;;;;;2.33;0.20;;;17.40;96.70;;;;;;5081235;28;20044;-81
2022/09/30 01:57:59;;;;;;;0.32;0.20;;;17.50;96.70;;;;;;5084103;28;20047;-80
2022/09/30 02:00:30;;;;;;;2.35;0.20;;;17.40;96.70;;;;;;5084695;28;20489;-79
2022/09/30 02:03:05;;;;;;;1.65;0.10;;;17.40;96.70;;;;;;5079601;28;20055;-80
2022/09/30 02:05:38;;;;;;;1.30;0.10;;;17.30;96.70;;;;;;5093881;28;20055;-80
2022/09/30 02:08:11;;;;;;;2.40;0.55;;;17.40;96.70;;;;;;5081939;28;20044;-80
2022/09/30 02:10:44;;;;;;;0.80;0.10;;;17.40;96.70;;;;;;5083024;28;20047;-81
2022/09/30 02:13:21;;;;;;;0.52;0.10;;;17.40;96.70;;;;;;5086563;28;20036;-80
2022/09/30 02:15:53;;;;;;;1.08;0.17;;;17.40;96.70;;;;;;5085794;28;20062;-80
2022/09/30 02:18:28;;;;;;;1.65;0.10;;;17.40;96.70;;;;;;5086334;28;20059;-80
2022/09/30 02:21:00;;;;;;;1.70;0.22;;;17.30;96.70;;;;;;5084436;28;20055;-80
2022/09/30 02:23:58;;;;;;;0.40;0.10;;;17.40;96.70;;;;;;5103015;28;20505;-80
2022/09/30 02:26:30;;;;;;;1.38;0.10;;;17.40;96.70;;;;;;5068783;28;20048;-81
2022/09/30 02:29:04;;;;;;;1.30;0.30;;;17.50;96.70;;;;;;5088741;28;20043;-81
2022/09/30 02:31:36;;;;;;;1.45;0.20;;;17.40;96.70;;;;;;5089062;28;20040;-81
2022/09/30 02:34:10;;;;;;;1.33;0.40;;;17.40;96.70;;;;;;5086103;28;20071;-80
2022/09/30 02:36:42;;;;;;;1.55;0.20;;;17.40;96.70;;;;;;5067296;28;20139;-80
2022/09/30 02:39:14;;;;;;;0.70;0.20;;;17.40;96.70;;;;;;5085545;28;20067;-81
2022/09/30 02:41:46;;;;;;;0.52;0.20;;;17.30;96.70;;;;;;5087736;28;20044;-81
2022/09/30 02:44:14;;;;;;;2.33;0.30;;;17.30;96.70;;;;;;5074402;28;20044;-81
2022/09/30 02:46:52;;;;;;;1.17;0.17;;;17.30;96.70;;;;;;5086240;28;20079;-80
2022/09/30 02:49:28;;;;;;;1.95;0.30;;;17.30;96.70;;;;;;5085608;28;20044;-81
2022/09/30 02:52:14;;;;;;;0.83;0.10;;;17.30;96.70;;;;;;5087274;28;20029;-80
2022/09/30 02:54:51;;;;;;;0.73;0.20;;;17.30;96.70;;;;;;5086923;28;20285;-80
2022/09/30 02:57:29;;;;;;;1.27;0.30;;;17.30;96.70;;;;;;5067039;28;20059;-81
2022/09/30 02:59:57;;;;;;;0.75;0.17;;;17.30;96.70;;;;;;5087377;28;20048;-81
2022/09/30 03:02:29;;;;;;;1.08;0.20;;;17.40;96.70;;;;;;5070251;28;20051;-81
2022/09/30 03:04:59;;;;;;;2.53;0.85;;;17.30;96.70;;;;;;5083249;28;20047;-80
2022/09/30 03:07:40;;;;;;;1.85;0.20;;;17.40;96.70;;;;;;5087814;28;20100;-80
2022/09/30 03:10:13;;;;;;;0.90;0.20;;;17.40;96.70;;;;;;5084263;28;20143;-81
2022/09/30 03:12:56;;;;;;;1.63;0.10;;;17.50;96.70;;;;;;5064939;28;20052;-80
2022/09/30 03:15:36;;;;;;;0.65;0.20;;;17.40;96.70;;;;;;5078856;28;20147;-81
2022/09/30 03:18:35;;;;;;;1.02;0.13;;;17.40;96.70;;;;;;5087739;28;20044;-81
2022/09/30 03:21:16;;;;;;;0.52;0.10;;;17.40;96.70;;;;;;5084605;28;20772;-80
2022/09/30 03:24:21;;;;;;;2.30;0.10;;;17.40;96.70;;;;;;5084516;28;20126;-81
2022/09/30 03:26:59;;;;;;;2.42;0.30;;;17.40;96.70;;;;;;5081058;28;20040;-81
2022/09/30 03:29:37;;;;;;;1.98;0.10;;;17.40;96.70;;;;;;5081735;28;20587;-81
2022/09/30 03:32:15;;;;;;;1.08;0.10;;;17.40;96.70;;;;;;5083643;28;20072;-80
2022/09/30 03:35:00;;;;;;;2.55;0.20;;;17.30;96.70;;;;;;5067083;28;20441;-81
2022/09/30 03:37:39;;;;;;;0.57;0.10;;;17.30;96.70;;;;;;5085288;28;20042;-80
2022/09/30 03:40:16;;;;;;;1.88;0.20;;;17.20;96.70;;;;;;5081867;28;20162;-81
2022/09/30 03:42:49;;;;;;;1.50;0.10;;;17.10;96.70;;;;;;5098520;28;20054;-80
2022/09/30 03:45:24;;;;;;;0.98;0.15;;;17.10;96.70;;;;;;5083012;28;20049;-80
2022/09/30 03:47:58;;;;;;;1.65;0.20;;;17.10;96.70;;;;;;5077307;28;20117;-81
2022/09/30 03:50:28;;;;;;;1.67;0.20;;;17.10;96.70;;;;;;5070722;28;20059;-81
2022/09/30 03:52:58;;;;;;;0.40;0.10;;;17.10;96.70;;;;;;5083690;28;20043;-80
2022/09/30 03:55:27;;;;;;;1.27;0.22;;;17.10;96.70;;;;;;5068062;28;20138;-80
2022/09/30 03:57:57;;;;;;;2.95;0.32;;;17.10;96.70;;;;;;5085576;28;20048;-76
2022/09/30 04:00:27;;;;;;;0.80;0.20;;;17.10;96.70;;;;;;5085633;28;20040;-81
2022/09/30 04:02:55;;;;;;;2.05;0.22;;;17.00;96.70;;;;;;5079019;28;20044;-81
2022/09/30 04:05:24;;;;;;;1.15;0.17;;;17.00;96.70;;;;;;5082775;28;20040;-81
2022/09/30 04:07:52;;;;;;;0.85;0.55;;;17.00;96.70;;;;;;5080409;28;20040;-80
2022/09/30 04:10:22;;;;;;;2.75;0.40;;;17.00;96.70;;;;;;5084840;28;20058;-80
2022/09/30 04:12:53;;;;;;;2.05;0.55;;;17.00;96.70;;;;;;5080486;28;20490;-81
2022/09/30 04:15:21;;;;;;;1.10;0.50;;;17.00;96.70;;;;;;5085761;28;20056;-80
2022/09/30 04:17:50;;;;;;;1.35;0.40;;;17.00;96.70;;;;;;5085273;28;20578;-80
2022/09/30 04:20:18;;;;;;;1.92;0.75;;;17.00;96.70;;;;;;5085632;28;20043;-81
2022/09/30 04:22:46;;;;;;;2.97;0.55;;;17.00;96.70;;;;;;5079998;28;20036;-80
2022/09/30 04:25:15;;;;;;;3.70;0.80;;;17.00;96.70;;;;;;5083864;28;20167;-81
2022/09/30 04:27:44;;;;;;;2.67;0.95;;;17.00;96.70;;;;;;5079936;28;21018;-81
2022/09/30 04:30:13;;;;;;;2.45;0.90;;;17.00;96.70;;;;;;5086361;28;20473;-81
2022/09/30 04:32:44;;;;;;;1.60;0.77;;;17.00;96.70;;;;;;5085819;28;20524;-81
2022/09/30 04:35:12;;;;;;;1.40;0.70;;;17.00;96.70;;;;;;5081375;28;20131;-80
2022/09/30 04:37:43;;;;;;;2.03;0.82;;;17.00;96.70;;;;;;5062282;28;20608;-81
2022/09/30 04:40:12;;;;;;;1.67;0.55;;;17.00;96.70;;;;;;5084684;28;20048;-80
2022/09/30 04:42:41;;;;;;;2.55;0.80;;;17.00;96.70;;;;;;5084640;28;20048;-81
2022/09/30 04:45:12;;;;;;;1.63;0.55;;;17.00;96.70;;;;;;5093482;28;20436;-80
2022/09/30 04:47:44;;;;;;;1.08;0.57;;;17.00;96.70;;;;;;5084612;28;20052;-81
2022/09/30 04:50:12;;;;;;;1.23;0.60;;;16.90;96.70;;;;;;5085267;28;20047;-80
2022/09/30 04:52:42;;;;;;;1.45;0.43;;;16.80;96.70;;;;;;5100679;28;20539;-81
2022/09/30 04:55:10;;;;;;;1.15;0.50;;;16.80;96.70;;;;;;5080935;28;20045;-80
2022/09/30 04:57:38;;;;;;;1.92;0.50;;;16.90;96.70;;;;;;5099775;28;20055;-80
2022/09/30 05:00:08;;;;;;;1.00;0.32;;;16.90;96.70;;;;;;5083732;28;20067;-81
2022/09/30 05:02:37;;;;;;;1.27;0.68;;;16.90;96.70;;;;;;5084488;28;20051;-80
2022/09/30 05:05:06;;;;;;;4.65;0.43;;;16.80;96.70;;;;;;5081406;28;20032;-81
2022/09/30 05:07:34;;;;;;;1.02;0.25;;;16.80;96.70;;;;;;5083715;28;20036;-81
2022/09/30 05:10:02;;;;;;;2.42;0.38;;;16.80;96.70;;;;;;5080285;28;20047;-81
2022/09/30 05:12:30;;;;;;;2.22;0.20;;;16.70;96.70;;;;;;5083656;28;20051;-81
2022/09/30 05:14:59;;;;;;;2.67;0.30;;;16.70;96.70;;;;;;5083924;28;20093;-80
2022/09/30 05:17:30;;;;;;;1.73;0.30;;;16.70;96.70;;;;;;5084441;28;20066;-80
2022/09/30 05:19:59;;;;;;;1.10;0.30;;;16.60;96.70;;;;;;5080652;28;20059;-80
2022/09/30 05:22:27;;;;;;;1.65;0.22;;;16.70;96.70;;;;;;5083330;28;20513;-80
2022/09/30 05:24:55;;;;;;;0.30;0.20;;;16.70;96.70;;;;;;5082790;28;20478;-80
2022/09/30 05:27:24;;;;;;;1.17;0.20;;;16.70;96.70;;;;;;5083456;28;20047;-80
2022/09/30 05:29:52;;;;;;;0.80;0.30;;;16.70;96.70;;;;;;5084203;28;20135;-80
2022/09/30 05:32:21;;;;;;;2.17;0.40;;;16.70;96.70;;;;;;5080565;28;20052;-80
2022/09/30 05:34:49;;;;;;;2.70;0.40;;;16.70;96.70;;;;;;5082831;28;20047;-80
2022/09/30 05:37:18;;;;;;;0.70;0.35;;;16.70;96.70;;;;;;5080510;28;20037;-80
2022/09/30 05:39:46;;;;;;;2.55;0.88;;;16.60;96.70;;;;;;5085087;28;20154;-81
2022/09/30 05:42:14;;;;;;;0.85;0.40;;;16.60;96.70;;;;;;5084521;28;20941;-81
2022/09/30 05:44:42;;;;;;;1.40;0.63;;;16.60;96.70;;;;;;5083227;28;20081;-80
2022/09/30 05:47:10;;;;;;;3.70;0.95;;;16.60;96.70;;;;;;5083484;28;20043;-80
2022/09/30 05:49:39;;;;;;;2.38;0.60;;;16.60;96.70;;;;;;5061850;28;20819;-81
2022/09/30 05:52:06;;;;;;;1.70;0.80;;;16.60;96.70;;;;;;5085297;28;20046;-80
2022/09/30 05:54:36;;;;;;;1.67;1.00;;;16.60;96.70;;;;;;5084481;28;20051;-81
2022/09/30 05:57:04;;;;;;;4.40;0.75;;;16.70;96.70;;;;;;5085051;28;20108;-80
2022/09/30 05:59:32;;;;;;;1.30;0.70;;;16.70;96.70;;;;;;5063351;28;20506;-80
2022/09/30 06:02:00;;;;;;;3.63;0.98;;;16.70;96.70;;;;;;5079682;28;20044;-80
2022/09/30 06:04:28;;;;;;;4.88;0.93;;;16.70;96.70;;;;;;5083080;28;20097;-81
2022/09/30 06:06:56;;;;;;;3.63;0.80;;;16.70;96.70;;;;;;5083308;28;20037;-83
2022/09/30 06:09:24;;;;;;;1.20;0.57;;;16.70;96.70;;;;;;5068392;28;20052;-82
2022/09/30 06:11:56;;;;;;;1.52;0.60;;;16.70;96.70;;;;;;5069493;28;20040;-83
2022/09/30 06:14:27;;;;;;;2.38;0.43;;;16.80;96.70;;;;;;5086417;28;20052;-83
2022/09/30 06:16:55;;;;;;;1.60;0.45;;;16.80;96.70;;;;;;5085669;28;20525;-83
2022/09/30 06:19:23;;;;;;;3.33;0.55;;;16.70;96.70;;;;;;5087296;28;20044;-84
2022/09/30 06:21:51;;;;;;;1.83;0.43;;;16.70;96.70;;;;;;5067081;28;20062;-84
2022/09/30 06:24:18;;;;;;;2.08;0.40;;;16.70;96.70;;;;;;5079525;28;20044;-83
2022/09/30 06:26:46;;;;;;;1.10;0.40;;;16.80;96.70;;;;;;5069871;28;20048;-82
2022/09/30 06:29:15;;;;;;;3.13;0.40;;;16.80;96.70;;;;;;5078243;28;20059;-82
2022/09/30 06:31:43;;;;;;;1.10;0.43;;;16.90;96.70;;;;;;5081771;28;20041;-83
2022/09/30 06:34:11;;;;;;;1.40;0.90;;;16.90;96.70;;;;;;5086677;28;20047;-82
2022/09/30 06:36:39;;;;;;;0.75;0.35;;;16.90;96.70;;;;;;5078870;28;20941;-80
2022/09/30 06:39:07;;;;;;;2.60;0.63;;;16.90;96.70;;;;;;5066088;28;20044;-79
2022/09/30 06:41:42;;;;;;;1.38;0.80;;;16.90;96.70;;;;;;5082253;28;20055;-81
2022/09/30 06:44:20;;;;;;;1.73;0.75;;;17.10;96.70;;;;;;5081917;28;20131;-84
2022/09/30 06:46:48;;;;;;;3.53;0.77;;;17.20;96.70;;;;;;5073736;28;20651;-84
2022/09/30 06:49:21;;;;;;;2.22;1.35;;;17.40;96.70;;;;;;5086014;28;20089;-83
2022/09/30 06:51:50;;;;;;;1.90;0.73;;;17.50;96.70;;;;;;5082561;28;20566;-83
2022/09/30 06:54:21;;;;;;;1.30;0.60;;;17.60;96.70;;;;;;5087650;28;20044;-82
2022/09/30 06:56:52;;;;;;;3.15;1.00;;;17.80;96.70;;;;;;5111892;28;20405;-83
2022/09/30 06:59:21;;;;;;;0.90;0.50;;;17.80;96.70;;;;;;5090856;28;20051;-84
2022/09/30 07:01:50;;;;;;;2.47;0.57;;;17.90;96.70;;;;;;5088809;28;20048;-84
2022/09/30 07:04:18;;;;;;;3.70;0.52;;;17.80;96.70;;;;;;5089996;28;20040;-83
2022/09/30 07:06:46;;;;;;;1.45;0.30;;;17.80;96.70;;;;;;5090849;28;20104;-84
2022/09/30 07:09:13;;;;;;;0.95;0.50;;;17.80;96.70;;;;;;5089291;28;20046;-83
2022/09/30 07:11:41;;;;;;;1.55;0.50;;;17.90;96.70;;;;;;5075741;28;20047;-84
2022/09/30 07:14:12;;;;;;;1.48;0.43;;;18.00;96.70;;;;;;5089563;28;20097;-84
2022/09/30 07:16:44;;;;;;;1.42;0.40;;;18.00;96.70;;;;;;5072812;28;20151;-83
2022/09/30 07:19:13;;;;;;;2.92;0.63;;;18.00;96.70;;;;;;5092195;28;20102;-83
2022/09/30 07:21:41;;;;;;;2.22;0.55;;;17.80;96.70;;;;;;5082973;28;20477;-84
2022/09/30 07:24:10;;;;;;;1.58;0.50;;;17.80;96.70;;;;;;5073696;28;20060;-84
2022/09/30 07:26:39;;;;;;;2.97;2.22;;;17.90;96.70;;;;;;5079127;28;20036;-84
2022/09/30 07:29:07;;;;;;;1.48;1.10;;;17.90;96.70;;;;;;5080328;28;20048;-83
2022/09/30 07:31:35;;;;;;;3.20;0.90;;;17.90;96.70;;;;;;5086296;28;20111;-84
2022/09/30 07:34:08;;;;;;;1.52;0.50;;;17.90;96.70;;;;;;5089813;28;20035;-80
2022/09/30 07:36:38;;;;;;;2.25;0.30;;;17.90;96.70;;;;;;5082071;28;20040;-80
2022/09/30 07:39:08;;;;;;;2.45;0.30;;;18.00;96.70;;;;;;5084193;28;20147;-80
2022/09/30 07:41:38;;;;;;;1.20;0.30;;;17.80;96.70;;;;;;5080915;28;20044;-81
2022/09/30 07:44:13;;;;;;;1.48;0.25;;;17.80;96.70;;;;;;5084254;28;20093;-79
2022/09/30 07:46:42;;;;;;;3.55;0.32;;;17.80;96.70;;;;;;5081027;28;20041;-80
2022/09/30 07:49:14;;;;;;;0.38;0.30;;;17.80;96.70;;;;;;5082726;28;20040;-79
2022/09/30 07:51:45;;;;;;;2.08;0.30;;;17.80;96.70;;;;;;5084074;28;20044;-85
2022/09/30 07:54:14;;;;;;;2.00;0.30;;;17.80;96.70;;;;;;5083397;28;20140;-83
2022/09/30 07:56:43;;;;;;;1.60;0.30;;;17.80;96.70;;;;;;5088297;28;20051;-78
2022/09/30 07:59:32;;;;;;;0.93;0.52;;;17.90;96.70;;;;;;5067808;28;20048;-83
2022/09/30 08:02:00;;;;;;;0.80;0.20;;;18.00;96.70;;;;;;5088429;28;20065;-83
2022/09/30 08:04:30;;;;;;;1.98;0.30;;;18.00;96.70;;;;;;5087043;28;20134;-81
2022/09/30 08:06:59;;;;;;;1.45;0.20;;;18.20;96.70;;;;;;5086673;28;20482;-83
2022/09/30 08:09:28;;;;;;;1.95;0.20;;;18.30;96.70;;;;;;5080874;28;20039;-84
2022/09/30 08:11:56;;;;;;;0.60;0.22;;;18.30;96.70;;;;;;5083786;28;20048;-84
2022/09/30 08:14:26;;;;;;;1.77;0.30;;;18.30;96.70;;;;;;5085516;28;20058;-81
2022/09/30 08:16:59;;;;;;;3.15;0.80;;;18.30;96.70;;;;;;5087443;28;20075;-82
2022/09/30 08:19:30;;;;;;;1.13;0.50;;;18.40;96.70;;;;;;5086381;28;20478;-78
2022/09/30 08:21:57;;;;;;;1.67;0.40;;;18.40;96.70;;;;;;5083446;28;20039;-83
2022/09/30 08:24:27;;;;;;;1.52;0.73;;;18.50;96.70;;;;;;5083154;28;20109;-79
2022/09/30 08:26:55;;;;;;;1.85;0.50;;;18.60;96.70;;;;;;5063882;28;20073;-79
2022/09/30 08:29:37;;;;;;;2.22;0.60;;;18.60;96.70;;;;;;5007087;28;20139;-79
2022/09/30 08:32:23;;;;;;;;;;;18.60;96.70;;;;;;5021977;28;20049;-80
2022/09/30 08:34:52;;;;;;;1.35;0.40;;;18.50;96.70;;;;;;5021696;28;19925;-79
2022/09/30 08:37:20;;;;;;;1.40;0.40;;;18.40;96.70;;;;;;5021037;28;20669;-79
2022/09/30 08:39:48;;;;;;;2.15;0.55;;;18.40;96.70;;;;;;5036814;28;20103;-79
2022/09/30 08:42:37;;;;;;;1.83;0.55;;;18.40;96.70;;;;;;4998273;28;20065;-80
2022/09/30 08:45:22;;;;;;;0.98;0.40;;;18.40;96.70;;;;;;5022014;28;20053;-79
2022/09/30 08:47:59;;;;;;;4.18;0.60;;;18.40;96.70;;;;;;5019511;28;20494;-80
2022/09/30 08:50:48;;;;;;;1.20;0.40;;;18.40;96.70;;;;;;5017967;28;20116;-79
2022/09/30 08:53:24;;;;;;;1.05;0.52;;;18.40;96.70;;;;;;5016899;28;20055;-79
2022/09/30 08:55:55;;;;;;;1.52;0.40;;;18.50;96.70;;;;;;5002591;28;20667;-79
2022/09/30 08:58:27;;;;;;;1.83;0.30;;;18.50;96.70;;;;;;5021982;28;20515;-82
2022/09/30 09:00:59;;;;;;;2.58;0.45;;;18.50;96.70;;;;;;5046582;28;20044;-79
2022/09/30 09:03:29;;;;;;;1.33;0.50;;;18.50;96.70;;;;;;5064131;28;20052;-79
2022/09/30 09:06:10;;;;;;;3.63;0.70;;;18.50;96.70;;;;;;5067252;28;20044;-79
2022/09/30 09:08:50;;;;;;;2.03;0.75;;;18.60;96.70;;;;;;5105798;27;20131;-84
2022/09/30 09:11:32;;;;;;;5.13;1.40;;;18.60;96.70;;;;;;5100768;28;20040;-85
2022/09/30 09:14:05;;;;;;;1.65;0.80;;;18.70;96.70;;;;;;5084465;28;20056;-77
2022/09/30 09:16:41;;;;;;;3.63;1.13;;;18.70;96.70;;;;;;5081861;28;20032;-75
2022/09/30 09:19:11;;;;;;;1.77;1.27;;;18.70;96.70;;;;;;5060671;28;20049;-75
2022/09/30 09:21:50;;;;;;;2.97;0.93;;;18.70;96.70;;;;;;5079022;28;20044;-75
2022/09/30 09:24:22;;;;;;;2.53;1.05;;;18.70;96.70;;;;;;5083601;28;20119;-75
2022/09/30 09:26:51;;;;;;;2.45;1.20;;;18.70;96.70;;;;;;5081930;28;20641;-75
2022/09/30 09:29:33;;;;;;;1.40;0.88;;;18.70;96.70;;;;;;5085452;28;20132;-76
2022/09/30 09:32:04;;;;;;;2.05;1.02;;;18.70;96.70;;;;;;5077486;28;20559;-76
2022/09/30 09:34:32;;;;;;;1.83;0.73;;;18.70;96.70;;;;;;5073465;28;20498;-78
2022/09/30 09:37:17;;;;;;;1.67;0.77;;;18.70;96.70;;;;;;5068074;28;20050;-75
2022/09/30 09:40:06;;;;;;;1.15;0.50;;;18.80;96.70;;;;;;5079231;28;20051;-76
2022/09/30 09:42:48;;;;;;;2.50;0.35;;;18.70;96.70;;;;;;5084406;28;20044;-76
2022/09/30 09:45:26;;;;;;;1.73;0.30;;;18.70;96.70;;;;;;5066994;28;20062;-76
2022/09/30 09:47:56;;;;;;;4.10;0.65;;;18.70;96.70;;;;;;5083467;28;20040;-76
2022/09/30 09:50:34;;;;;;;2.55;0.68;;;18.60;96.70;;;;;;5069870;28;20048;-76
2022/09/30 09:53:27;;;;;;;0.85;0.30;;;18.60;96.70;;;;;;5083571;28;20141;-76
2022/09/30 09:55:58;;;;;;;1.33;0.60;;;18.70;96.70;;;;;;5080694;28;20040;-76
2022/09/30 09:58:27;;;;;;;2.00;0.40;;;18.70;96.70;;;;;;5074389;28;20048;-76
2022/09/30 10:01:20;;;;;;;1.48;0.52;;;18.70;96.70;;;;;;5081674;28;20127;-77
2022/09/30 10:04:08;;;;;;;1.25;0.40;;;18.70;96.70;;;;;;5081024;28;20048;-76
2022/09/30 10:06:48;;;;;;;1.27;0.50;;;18.50;96.70;;;;;;5083869;28;20127;-76
2022/09/30 10:09:32;;;;;;;4.70;0.90;;;18.30;96.70;;;;;;5079824;28;20556;-77
2022/09/30 10:12:27;;;;;;;4.53;1.05;;;18.30;96.70;;;;;;5078578;28;20061;-76
2022/09/30 10:15:00;;;;;;;4.80;0.88;;;18.20;96.70;;;;;;5081323;28;20079;-77
2022/09/30 10:17:30;;;;;;;3.45;0.93;;;18.10;96.70;;;;;;5080011;28;20055;-78
2022/09/30 10:20:06;;;;;;;4.28;1.10;;;18.10;96.70;;;;;;5064809;28;20485;-77
2022/09/30 10:22:35;;;;;;;3.60;0.80;;;18.00;96.70;;;;;;5083452;28;20523;-77
2022/09/30 10:25:20;;;;;;;1.58;0.57;;;18.00;96.70;;;;;;5083086;28;20028;-77
2022/09/30 10:27:51;;;;;;;2.05;0.73;;;17.90;96.70;;;;;;5081240;28;20044;-77
2022/09/30 10:30:42;;;;;;;2.20;0.70;;;17.90;96.70;;;;;;5070211;28;20102;-77
2022/09/30 10:33:18;;;;;;;1.70;0.70;;;18.00;96.70;;;;;;5081899;28;20039;-77
2022/09/30 10:35:56;;;;;;;3.80;1.08;;;18.00;96.70;;;;;;5085885;28;20144;-77
2022/09/30 10:38:28;;;;;;;2.25;1.10;;;18.00;96.70;;;;;;5068630;28;20051;-77
2022/09/30 10:40:58;;;;;;;2.85;1.00;;;18.00;96.70;;;;;;5084124;28;20048;-79
2022/09/30 10:43:32;;;;;;;3.55;0.90;;;17.90;96.70;;;;;;5085287;28;20178;-76
2022/09/30 10:46:03;;;;;;;5.15;0.80;;;17.90;96.70;;;;;;5084537;28;20040;-77
2022/09/30 10:48:55;;;;;;;1.70;0.80;;;18.00;96.70;;;;;;5110429;27;20044;-77
2022/09/30 10:51:35;;;;;;;2.28;0.80;;;18.00;96.70;;;;;;5085917;28;20501;-76
2022/09/30 10:54:05;;;;;;;1.88;0.80;;;18.00;96.70;;;;;;5081979;28;20132;-77
2022/09/30 10:56:53;;;;;;;1.95;0.85;;;18.10;96.70;;;;;;5086079;28;20710;-77
2022/09/30 10:59:32;;;;;;;1.88;0.88;;;18.20;96.70;;;;;;5085216;28;20466;-77
2022/09/30 11:02:22;;;;;;;2.08;0.98;;;18.30;96.70;;;;;;5090781;28;20052;-76
2022/09/30 11:05:00;;;;;;;3.72;1.20;;;18.30;96.70;;;;;;5069275;28;20058;-77
2022/09/30 11:07:32;;;;;;;4.05;1.13;;;18.40;96.70;;;;;;5085435;28;20098;-77
2022/09/30 11:10:05;;;;;;;3.13;0.90;;;18.30;96.70;;;;;;5081187;28;20051;-76
2022/09/30 11:12:44;;;;;;;2.85;1.00;;;18.30;96.70;;;;;;5081537;28;20562;-77
2022/09/30 11:15:16;;;;;;;4.60;1.20;;;18.50;96.70;;;;;;5085426;28;20052;-77
2022/09/30 11:17:52;;;;;;;1.15;0.75;;;18.60;96.70;;;;;;5084681;28;20148;-77
2022/09/30 11:20:25;;;;;;;3.80;1.33;;;18.70;96.70;;;;;;5085273;28;20417;-76
2022/09/30 11:22:59;;;;;;;2.30;0.90;;;18.80;96.70;;;;;;5085824;28;20533;-76
2022/09/30 11:25:37;;;;;;;2.08;0.90;;;18.90;96.70;;;;;;5081981;28;20095;-76
2022/09/30 11:28:34;;;;;;;3.55;1.00;;;18.90;96.70;;;;;;5085216;28;20052;-76
2022/09/30 11:31:14;;;;;;;2.85;1.10;;;18.90;96.70;;;;;;5067740;28;20044;-76
2022/09/30 11:34:00;;;;;;;1.58;1.00;;;19.00;96.70;;;;;;5084974;28;20040;-77
2022/09/30 11:36:36;;;;;;;3.85;1.00;;;19.00;96.70;;;;;;5080309;28;20434;-77
2022/09/30 11:39:30;;;;;;;5.10;1.38;;;19.00;96.70;;;;;;5084245;28;20140;-76
2022/09/30 11:42:06;;;;;;;3.33;1.20;;;19.00;96.70;;;;;;5064098;28;20057;-76
2022/09/30 11:44:40;;;;;;;2.65;1.02;;;18.90;96.70;;;;;;5076527;28;20040;-77
2022/09/30 11:47:28;;;;;;;2.85;1.10;;;18.90;96.70;;;;;;5085675;28;20032;-76
2022/09/30 11:50:13;;;;;;;3.53;1.00;;;18.90;96.70;;;;;;5083670;28;20044;-77
2022/09/30 11:52:53;;;;;;;2.95;0.95;;;19.00;96.70;;;;;;5084809;28;20409;-76
2022/09/30 11:55:43;;;;;;;2.90;0.95;;;19.00;96.70;;;;;;5084157;28;20059;-76
2022/09/30 11:58:15;;;;;;;2.25;0.90;;;19.10;96.70;;;;;;5086064;28;20040;-77
2022/09/30 12:01:18;;;;;;;1.92;1.02;;;19.20;96.70;;;;;;5086594;28;20105;-77
2022/09/30 12:03:54;;;;;;;1.58;0.65;;;19.30;96.70;;;;;;5082530;28;20135;-77
2022/09/30 12:06:25;;;;;;;;;;;19.30;96.70;;;;;;5083560;28;20052;-77
2022/09/30 12:08:58;;;;;;;1.63;0.70;;;19.40;96.70;;;;;;5080913;28;19935;-76
2022/09/30 12:11:35;;;;;;;3.35;1.25;;;19.40;96.70;;;;;;5095657;28;20536;-77
2022/09/30 12:14:05;;;;;;;;;;;19.40;96.70;;;;;;5082416;28;20591;-78
2022/09/30 12:16:37;;;;;;;3.67;1.20;;;19.50;96.70;;;;;;5085352;28;19927;-77
2022/09/30 12:19:15;;;;;;;3.92;1.35;;;19.60;96.70;;;;;;5073567;28;20059;-77
2022/09/30 12:21:54;;;;;;;4.45;1.00;;;19.80;96.70;;;;;;5082218;28;20050;-76
2022/09/30 12:24:29;;;;;;;1.30;0.82;;;19.90;96.70;;;;;;5081105;28;20053;-77
2022/09/30 12:27:21;;;;;;;1.35;0.70;;;20.20;96.70;;;;;;5082260;28;20123;-77
2022/09/30 12:30:17;;;;;;;2.15;0.70;;;20.20;96.70;;;;;;5006253;28;20061;-77
2022/09/30 12:33:20;;;;;;;1.13;0.60;;;20.40;96.70;;;;;;4969926;28;20507;-76
2022/09/30 12:36:18;;;;;;;1.55;0.60;;;20.70;96.70;;;;;;4976972;28;20061;-77
2022/09/30 12:38:53;;;;;;;;;;;20.70;96.70;;;;;;4991573;28;20061;-77
2022/09/30 12:41:42;;;;;;;2.90;0.85;;;20.60;96.70;;;;;;5002519;28;19926;-76
2022/09/30 12:44:41;;;;;;;3.25;0.90;;;20.60;96.70;;;;;;4987057;28;20053;-77
2022/09/30 12:47:32;;;;;;;2.95;0.90;;;20.70;96.70;;;;;;5001354;28;20125;-77
2022/09/30 12:50:06;;;;;;;2.78;0.70;;;20.90;96.70;;;;;;5002777;28;20058;-77
2022/09/30 12:52:37;;;;;;;1.73;0.80;;;20.80;96.70;;;;;;4981601;28;20536;-76
2022/09/30 12:55:12;;;;;;;2.25;0.65;;;20.90;96.70;;;;;;5007145;28;20042;-77
2022/09/30 12:57:42;;;;;;;3.03;1.08;;;20.80;96.70;;;;;;4979734;28;20447;-78
2022/09/30 13:00:16;;;;;;;1.45;0.50;;;20.80;96.70;;;;;;5033523;28;20513;-77
2022/09/30 13:02:47;;;;;;;2.75;0.85;;;20.80;96.70;;;;;;5065944;28;20058;-77
2022/09/30 13:05:55;;;;;;;1.88;0.77;;;20.90;96.70;;;;;;5082746;28;20044;-76
2022/09/30 13:08:44;;;;;;;;;;;21.20;96.70;;;;;;5080920;28;20071;-77
2022/09/30 13:11:37;;;;;;;1.90;0.55;;;21.50;96.70;;;;;;5081958;28;20002;-76
2022/09/30 13:14:25;;;;;;;1.52;0.55;;;21.60;96.70;;;;;;5060413;28;20056;-77
2022/09/30 13:17:25;;;;;;;1.17;0.50;;;21.30;96.70;;;;;;5080481;28;20094;-76
2022/09/30 13:19:56;;;;;;;0.85;0.40;;;21.10;96.70;;;;;;5081217;28;20050;-77
2022/09/30 13:22:56;;;;;;;2.92;1.00;;;21.00;96.70;;;;;;5081996;28;20052;-77
2022/09/30 13:25:25;;;;;;;2.15;0.60;;;21.00;96.70;;;;;;5079069;28;20506;-77
2022/09/30 13:28:23;;;;;;;1.88;0.52;;;21.00;96.70;;;;;;5091768;28;20141;-76